Time;durP1;ratioP1;P1;durP2;ratioP2;P2;SDS_P1;SDS_P2;PMS_P1;PMS_P2;Temp;Humidity;BMP_temperature;BMP_pressure;BME280_temperature;BME280_humidity;BME280_pressure;Samples;Min_cycle;Max_cycle;Signal;HPM_P1;HPM_P2
2023/01/02 00:00:05;;;;;;;6.55;1.80;;;;;;;;;;8213682;28;20041;-64
2023/01/02 00:04:05;;;;;;;9.25;1.90;;;;;;;;;;8210930;28;20661;-64
2023/01/02 00:08:05;;;;;;;7.30;1.65;;;;;;;;;;8220314;28;20037;-63
2023/01/02 00:12:06;;;;;;;13.13;2.10;;;;;;;;;;8220274;28;20038;-63
2023/01/02 00:16:06;;;;;;;6.32;2.33;;;;;;;;;;8226140;28;20481;-63
2023/01/02 00:20:07;;;;;;;8.23;1.88;;;;;;;;;;8221781;28;20800;-63
2023/01/02 00:24:07;;;;;;;9.20;1.70;;;;;;;;;;8219689;28;20022;-63
2023/01/02 00:28:07;;;;;;;5.90;1.95;;;;;;;;;;8218647;28;20045;-64
2023/01/02 00:32:07;;;;;;;8.80;1.85;;;;;;;;;;8221387;28;20035;-63
2023/01/02 00:36:11;;;;;;;7.55;1.80;;;;;;;;;;8215597;28;20046;-63
2023/01/02 00:40:12;;;;;;;8.52;1.73;;;;;;;;;;8217554;28;20035;-63
2023/01/02 00:44:12;;;;;;;7.15;1.90;;;;;;;;;;8217684;28;20030;-63
2023/01/02 00:48:13;;;;;;;11.30;2.00;;;;;;;;;;8218163;28;20345;-62
2023/01/02 00:52:13;;;;;;;9.23;1.97;;;;;;;;;;8226644;28;20023;-62
2023/01/02 00:56:13;;;;;;;8.10;1.80;;;;;;;;;;8219688;28;20113;-62
2023/01/02 01:00:14;;;;;;;6.82;1.83;;;;;;;;;;8225069;28;20031;-62
2023/01/02 01:04:14;;;;;;;11.07;2.22;;;;;;;;;;8217061;28;20493;-62
2023/01/02 01:08:14;;;;;;;9.05;1.75;;;;;;;;;;8215841;28;20085;-62
2023/01/02 01:12:14;;;;;;;6.68;1.70;;;;;;;;;;8213682;28;20492;-62
2023/01/02 01:16:15;;;;;;;4.90;1.60;;;;;;;;;;8217811;28;20046;-62
2023/01/02 01:20:15;;;;;;;6.80;2.13;;;;;;;;;;8223209;28;20826;-62
2023/01/02 01:24:16;;;;;;;8.35;2.50;;;;;;;;;;8212273;28;20034;-62
2023/01/02 01:28:16;;;;;;;8.18;1.90;;;;;;;;;;8233643;28;20037;-62
2023/01/02 01:32:16;;;;;;;10.55;2.40;;;;;;;;;;8215956;28;20038;-62
2023/01/02 01:36:18;;;;;;;10.10;2.38;;;;;;;;;;8222784;28;20035;-62
2023/01/02 01:40:18;;;;;;;5.85;1.73;;;;;;;;;;8228896;28;20066;-64
2023/01/02 01:44:37;;;;;;;7.53;1.70;;;;;;;;;;8240897;28;20026;-63
2023/01/02 01:48:37;;;;;;;8.07;1.70;;;;;;;;;;8229462;28;20113;-63
2023/01/02 01:52:40;;;;;;;8.07;1.83;;;;;;;;;;8223857;28;20318;-63
2023/01/02 01:56:44;;;;;;;13.20;2.20;;;;;;;;;;8227300;28;20031;-63
2023/01/02 02:00:44;;;;;;;8.60;2.13;;;;;;;;;;8230473;28;20073;-63
2023/01/02 02:04:44;;;;;;;10.07;2.10;;;;;;;;;;8220932;28;20340;-62
2023/01/02 02:08:48;;;;;;;17.65;2.20;;;;;;;;;;8225930;28;20026;-62
2023/01/02 02:12:48;;;;;;;5.25;2.00;;;;;;;;;;8229980;28;20631;-62
2023/01/02 02:17:06;;;;;;;9.00;2.17;;;;;;;;;;8228013;28;20165;-62
2023/01/02 02:21:09;;;;;;;8.70;2.00;;;;;;;;;;8230161;28;20259;-62
2023/01/02 02:25:15;;;;;;;6.88;1.90;;;;;;;;;;8228988;28;20034;-62
2023/01/02 02:29:21;;;;;;;7.72;1.42;;;;;;;;;;8226226;28;20082;-62
2023/01/02 02:33:40;;;;;;;11.25;2.00;;;;;;;;;;8229065;28;20034;-62
2023/01/02 02:37:59;;;;;;;11.35;2.03;;;;;;;;;;8231414;28;20026;-62
2023/01/02 02:42:20;;;;;;;8.95;2.17;;;;;;;;;;8224506;28;20518;-62
2023/01/02 02:46:29;;;;;;;7.47;2.05;;;;;;;;;;8230766;28;20038;-62
2023/01/02 02:50:34;;;;;;;10.00;1.98;;;;;;;;;;8227266;28;20561;-62
2023/01/02 02:54:55;;;;;;;6.07;1.60;;;;;;;;;;8215225;28;20327;-62
2023/01/02 02:58:55;;;;;;;12.82;2.28;;;;;;;;;;8218946;28;20413;-62
2023/01/02 03:02:55;;;;;;;12.93;1.70;;;;;;;;;;8217012;28;20042;-62
2023/01/02 03:07:07;;;;;;;11.45;2.25;;;;;;;;;;8225410;28;20262;-63
2023/01/02 03:11:07;;;;;;;8.23;1.92;;;;;;;;;;8217732;28;20061;-63
2023/01/02 03:15:11;;;;;;;8.73;1.88;;;;;;;;;;8226673;28;20026;-64
2023/01/02 03:19:19;;;;;;;6.40;1.80;;;;;;;;;;8228139;28;20030;-63
2023/01/02 03:23:22;;;;;;;12.63;2.35;;;;;;;;;;8219120;28;20258;-62
2023/01/02 03:27:23;;;;;;;8.27;1.55;;;;;;;;;;8223939;28;20615;-62
2023/01/02 03:31:25;;;;;;;16.30;2.05;;;;;;;;;;8221735;28;20543;-62
2023/01/02 03:35:27;;;;;;;6.75;1.77;;;;;;;;;;8219681;28;20046;-62
2023/01/02 03:39:29;;;;;;;11.32;2.20;;;;;;;;;;8223090;28;20026;-62
2023/01/02 03:43:30;;;;;;;10.63;2.05;;;;;;;;;;8219325;28;20101;-63
2023/01/02 03:47:51;;;;;;;11.20;2.35;;;;;;;;;;8223996;28;20066;-63
2023/01/02 03:51:51;;;;;;;10.93;1.88;;;;;;;;;;8223603;28;20039;-63
2023/01/02 03:56:10;;;;;;;11.00;2.25;;;;;;;;;;8221433;28;20041;-63
2023/01/02 04:00:13;;;;;;;11.30;2.00;;;;;;;;;;8219488;28;20149;-64
2023/01/02 04:04:32;;;;;;;11.57;2.20;;;;;;;;;;8219126;28;20046;-63
2023/01/02 04:08:38;;;;;;;10.50;2.20;;;;;;;;;;8219464;28;20030;-63
2023/01/02 04:12:39;;;;;;;8.85;1.75;;;;;;;;;;8213385;28;20014;-63
2023/01/02 04:16:41;;;;;;;14.60;2.30;;;;;;;;;;8221880;28;21246;-63
2023/01/02 04:20:45;;;;;;;8.32;2.03;;;;;;;;;;8220774;28;20037;-62
2023/01/02 04:24:47;;;;;;;14.48;2.50;;;;;;;;;;8217462;28;20046;-62
2023/01/02 04:28:47;;;;;;;13.20;2.40;;;;;;;;;;8223947;28;20065;-62
2023/01/02 04:32:47;;;;;;;13.10;1.95;;;;;;;;;;8219931;28;20042;-63
2023/01/02 04:36:48;;;;;;;11.27;2.20;;;;;;;;;;8217413;28;20040;-63
2023/01/02 04:40:48;;;;;;;15.63;2.10;;;;;;;;;;8215810;28;20053;-63
2023/01/02 04:44:48;;;;;;;12.80;1.80;;;;;;;;;;8220976;28;20918;-63
2023/01/02 04:48:48;;;;;;;10.32;2.45;;;;;;;;;;8218912;28;20038;-63
2023/01/02 04:52:48;;;;;;;7.88;1.90;;;;;;;;;;8217132;28;20037;-63
2023/01/02 04:56:49;;;;;;;13.02;2.42;;;;;;;;;;8217831;28;20023;-64
2023/01/02 05:00:49;;;;;;;10.00;2.00;;;;;;;;;;8217426;28;20110;-61
2023/01/02 05:04:49;;;;;;;14.48;2.30;;;;;;;;;;8212455;28;20030;-64
2023/01/02 05:08:49;;;;;;;11.02;2.13;;;;;;;;;;8215169;28;20030;-63
2023/01/02 05:12:49;;;;;;;7.90;2.20;;;;;;;;;;8211079;28;20184;-63
2023/01/02 05:16:49;;;;;;;12.68;2.70;;;;;;;;;;8216231;28;20041;-63
2023/01/02 05:20:50;;;;;;;10.43;2.13;;;;;;;;;;8213833;28;20078;-63
2023/01/02 05:24:50;;;;;;;12.55;1.83;;;;;;;;;;8213472;28;20593;-63
2023/01/02 05:28:53;;;;;;;7.63;1.98;;;;;;;;;;8212616;28;20594;-63
2023/01/02 05:32:54;;;;;;;10.63;2.25;;;;;;;;;;8213187;28;20070;-63
2023/01/02 05:36:54;;;;;;;11.40;2.13;;;;;;;;;;8213789;28;20037;-63
2023/01/02 05:41:04;;;;;;;8.18;2.03;;;;;;;;;;8211460;28;20030;-62
2023/01/02 05:45:04;;;;;;;8.75;1.92;;;;;;;;;;8214990;28;20479;-64
2023/01/02 05:49:08;;;;;;;11.40;2.33;;;;;;;;;;8213727;28;20610;-63
2023/01/02 05:53:08;;;;;;;;;;;;;;;;;;8215764;28;20562;-63
2023/01/02 05:57:09;;;;;;;14.43;2.40;;;;;;;;;;8209595;28;19914;-63
2023/01/02 06:01:10;;;;;;;12.77;2.10;;;;;;;;;;8209868;28;20110;-63
2023/01/02 06:05:10;;;;;;;11.40;2.22;;;;;;;;;;8210049;28;20041;-63
2023/01/02 06:09:11;;;;;;;17.85;2.38;;;;;;;;;;8212919;28;20726;-63
2023/01/02 06:13:11;;;;;;;12.43;2.20;;;;;;;;;;8216246;28;20031;-64
2023/01/02 06:17:12;;;;;;;11.70;2.00;;;;;;;;;;8221082;28;20424;-63
2023/01/02 06:21:13;;;;;;;13.75;2.85;;;;;;;;;;8219593;28;20065;-62
2023/01/02 06:25:13;;;;;;;12.60;2.53;;;;;;;;;;8213451;28;20027;-63
2023/01/02 06:29:14;;;;;;;16.15;2.90;;;;;;;;;;8219431;28;20419;-63
2023/01/02 06:33:14;;;;;;;21.73;2.75;;;;;;;;;;8223304;28;20096;-63
2023/01/02 06:37:14;;;;;;;9.90;2.13;;;;;;;;;;8227099;28;20042;-62
2023/01/02 06:41:15;;;;;;;14.02;2.03;;;;;;;;;;8228621;28;20365;-62
2023/01/02 06:45:15;;;;;;;11.30;2.03;;;;;;;;;;8229195;28;20026;-62
2023/01/02 06:49:15;;;;;;;11.38;2.00;;;;;;;;;;8228946;28;20030;-62
2023/01/02 06:53:15;;;;;;;16.77;2.35;;;;;;;;;;8222939;28;20041;-63
2023/01/02 06:57:16;;;;;;;17.75;2.45;;;;;;;;;;8223365;28;20027;-63
2023/01/02 07:01:17;;;;;;;9.98;2.85;;;;;;;;;;8227402;28;20035;-65
2023/01/02 07:05:17;;;;;;;13.90;2.65;;;;;;;;;;8230126;28;20078;-63
2023/01/02 07:09:17;;;;;;;16.08;2.78;;;;;;;;;;8222057;28;20034;-63
2023/01/02 07:13:18;;;;;;;12.90;2.13;;;;;;;;;;8223607;28;20022;-62
2023/01/02 07:17:18;;;;;;;10.10;2.20;;;;;;;;;;8222066;28;20039;-63
2023/01/02 07:21:19;;;;;;;16.40;2.28;;;;;;;;;;8227068;28;20034;-63
2023/01/02 07:25:20;;;;;;;17.70;2.85;;;;;;;;;;8219737;28;20065;-65
2023/01/02 07:29:20;;;;;;;17.17;2.35;;;;;;;;;;8230015;28;20566;-63
2023/01/02 07:33:20;;;;;;;12.23;2.10;;;;;;;;;;8234862;28;20043;-63
2023/01/02 07:37:20;;;;;;;14.35;2.40;;;;;;;;;;8240192;28;20031;-63
2023/01/02 07:41:22;;;;;;;12.35;2.40;;;;;;;;;;8232610;28;20384;-64
2023/01/02 07:45:22;;;;;;;11.45;2.13;;;;;;;;;;8230297;28;21347;-63
2023/01/02 07:49:22;;;;;;;9.32;2.28;;;;;;;;;;8233031;28;20190;-63
2023/01/02 07:53:22;;;;;;;12.65;1.98;;;;;;;;;;8240017;28;20052;-61
2023/01/02 07:57:22;;;;;;;8.35;2.08;;;;;;;;;;8228092;28;20374;-62
2023/01/02 08:01:22;;;;;;;15.27;2.60;;;;;;;;;;8225971;28;20053;-62
2023/01/02 08:05:23;;;;;;;13.55;2.10;;;;;;;;;;8227299;28;20085;-64
2023/01/02 08:09:23;;;;;;;9.25;2.20;;;;;;;;;;8224744;28;20046;-63
2023/01/02 08:13:23;;;;;;;13.30;2.15;;;;;;;;;;8225137;28;20394;-62
2023/01/02 08:17:23;;;;;;;16.40;2.43;;;;;;;;;;8223164;28;20053;-65
2023/01/02 08:21:24;;;;;;;12.20;2.20;;;;;;;;;;8231578;28;20315;-64
2023/01/02 08:25:24;;;;;;;15.77;2.72;;;;;;;;;;8230098;28;20027;-63
2023/01/02 08:29:24;;;;;;;8.93;2.15;;;;;;;;;;8222831;28;20401;-62
2023/01/02 08:33:25;;;;;;;9.65;2.30;;;;;;;;;;8221968;28;20042;-63
2023/01/02 08:37:25;;;;;;;7.68;2.20;;;;;;;;;;8224645;28;20026;-62
2023/01/02 08:41:30;;;;;;;11.63;2.47;;;;;;;;;;8226710;28;20069;-63
2023/01/02 08:45:30;;;;;;;10.60;2.03;;;;;;;;;;8229838;28;20121;-62
2023/01/02 08:49:30;;;;;;;9.65;2.00;;;;;;;;;;8226061;28;20711;-63
2023/01/02 08:53:30;;;;;;;8.93;2.35;;;;;;;;;;8230852;28;20034;-63
2023/01/02 08:57:31;;;;;;;5.93;1.95;;;;;;;;;;8233164;28;20069;-63
2023/01/02 09:01:31;;;;;;;8.07;2.20;;;;;;;;;;8226827;28;20046;-63
2023/01/02 09:05:31;;;;;;;10.98;2.50;;;;;;;;;;8223959;28;20093;-62
2023/01/02 09:09:32;;;;;;;10.15;2.17;;;;;;;;;;8224811;28;20053;-62
2023/01/02 09:13:32;;;;;;;10.85;2.30;;;;;;;;;;8226697;28;20046;-63
2023/01/02 09:17:32;;;;;;;10.07;1.98;;;;;;;;;;8216701;28;20041;-63
2023/01/02 09:21:32;;;;;;;9.77;2.22;;;;;;;;;;8215366;28;20026;-62
2023/01/02 09:25:33;;;;;;;6.82;2.10;;;;;;;;;;8227715;28;20042;-63
2023/01/02 09:29:33;;;;;;;8.15;2.22;;;;;;;;;;8228095;28;20070;-62
2023/01/02 09:33:33;;;;;;;10.30;2.47;;;;;;;;;;8222860;28;20069;-62
2023/01/02 09:37:33;;;;;;;11.45;2.05;;;;;;;;;;8202855;28;20027;-62
2023/01/02 09:41:34;;;;;;;9.15;2.20;;;;;;;;;;8198348;28;20388;-64
2023/01/02 09:45:35;;;;;;;7.55;2.28;;;;;;;;;;8198884;28;20302;-62
2023/01/02 09:49:41;;;;;;;11.70;2.50;;;;;;;;;;8198901;28;20061;-62
2023/01/02 09:53:41;;;;;;;11.77;2.08;;;;;;;;;;8201934;28;20037;-64
2023/01/02 09:57:50;;;;;;;11.40;2.43;;;;;;;;;;8202299;28;20029;-63
2023/01/02 10:02:00;;;;;;;11.02;1.92;;;;;;;;;;8199029;28;20305;-63
2023/01/02 10:06:17;;;;;;;15.32;2.72;;;;;;;;;;8209080;28;20092;-63
2023/01/02 10:10:17;;;;;;;5.47;2.03;;;;;;;;;;8211803;28;20157;-65
2023/01/02 10:14:23;;;;;;;5.63;2.15;;;;;;;;;;8211682;28;20026;-64
2023/01/02 10:18:40;;;;;;;8.57;2.00;;;;;;;;;;8208726;28;20432;-65
2023/01/02 10:22:48;;;;;;;5.35;1.80;;;;;;;;;;8208187;28;20026;-64
2023/01/02 10:26:51;;;;;;;7.20;1.95;;;;;;;;;;8210959;28;20022;-64
2023/01/02 10:30:56;;;;;;;7.53;1.90;;;;;;;;;;8208363;28;20039;-63
2023/01/02 10:35:10;;;;;;;9.82;2.05;;;;;;;;;;8210438;28;20030;-64
2023/01/02 10:39:17;;;;;;;11.32;2.20;;;;;;;;;;8215443;28;20086;-63
2023/01/02 10:43:18;;;;;;;5.47;2.00;;;;;;;;;;8214027;28;20073;-64
2023/01/02 10:47:21;;;;;;;7.80;2.17;;;;;;;;;;8211144;28;20035;-63
2023/01/02 10:51:22;;;;;;;10.40;2.30;;;;;;;;;;8209273;28;20052;-62
2023/01/02 10:55:29;;;;;;;5.95;2.45;;;;;;;;;;8204096;28;20027;-61
2023/01/02 10:59:30;;;;;;;8.60;2.35;;;;;;;;;;8206604;28;20399;-61
2023/01/02 11:03:30;;;;;;;6.47;2.28;;;;;;;;;;8208682;28;20054;-62
2023/01/02 11:07:32;;;;;;;12.52;2.53;;;;;;;;;;8214900;28;20038;-64
2023/01/02 11:11:33;;;;;;;8.55;2.72;;;;;;;;;;8208020;28;20503;-62
2023/01/02 11:15:34;;;;;;;8.45;2.10;;;;;;;;;;8208109;28;20046;-62
2023/01/02 11:19:38;;;;;;;7.40;2.42;;;;;;;;;;8208992;28;20335;-63
2023/01/02 11:23:43;;;;;;;9.95;2.40;;;;;;;;;;8210808;28;20018;-62
2023/01/02 11:27:43;;;;;;;8.48;2.90;;;;;;;;;;8210475;28;20030;-63
2023/01/02 11:31:50;;;;;;;8.90;2.58;;;;;;;;;;8211284;28;20137;-63
2023/01/02 11:35:51;;;;;;;8.40;2.53;;;;;;;;;;8212743;28;20029;-62
2023/01/02 11:40:02;;;;;;;7.55;2.47;;;;;;;;;;8213923;28;20506;-63
2023/01/02 11:44:03;;;;;;;9.35;2.40;;;;;;;;;;8219648;28;20026;-63
2023/01/02 11:48:05;;;;;;;11.43;2.70;;;;;;;;;;8223597;28;20075;-62
2023/01/02 11:52:05;;;;;;;8.35;2.42;;;;;;;;;;8213517;28;20102;-62
2023/01/02 11:56:18;;;;;;;8.10;2.63;;;;;;;;;;8223877;28;20054;-62
2023/01/02 12:00:19;;;;;;;9.25;2.20;;;;;;;;;;8220774;28;20080;-62
2023/01/02 12:04:21;;;;;;;8.35;2.42;;;;;;;;;;8222944;28;20018;-61
2023/01/02 12:08:30;;;;;;;9.00;2.60;;;;;;;;;;8225635;28;20089;-62
2023/01/02 12:12:36;;;;;;;7.63;2.30;;;;;;;;;;8223596;28;20018;-62
2023/01/02 12:16:36;;;;;;;12.10;2.47;;;;;;;;;;8225752;28;20070;-62
2023/01/02 12:20:52;;;;;;;9.60;2.67;;;;;;;;;;8229383;28;20034;-62
2023/01/02 12:24:52;;;;;;;7.35;2.65;;;;;;;;;;8218898;28;20019;-62
2023/01/02 12:28:55;;;;;;;5.80;2.22;;;;;;;;;;8221031;28;20022;-62
2023/01/02 12:33:05;;;;;;;6.27;2.10;;;;;;;;;;8233719;28;20287;-62
2023/01/02 12:37:18;;;;;;;7.03;2.40;;;;;;;;;;8226538;28;20559;-61
2023/01/02 12:41:18;;;;;;;12.88;2.72;;;;;;;;;;8224535;28;20046;-61
2023/01/02 12:45:33;;;;;;;8.98;2.28;;;;;;;;;;8224294;28;20386;-63
2023/01/02 12:49:33;;;;;;;8.27;2.53;;;;;;;;;;8219823;28;20081;-62
2023/01/02 12:53:52;;;;;;;12.02;2.47;;;;;;;;;;8218005;28;20030;-63
2023/01/02 12:58:28;;;;;;;12.50;2.63;;;;;;;;;;8220065;28;20044;-62
2023/01/02 13:02:40;;;;;;;11.43;2.97;;;;;;;;;;8178125;28;20054;-62
2023/01/02 13:06:44;;;;;;;11.00;2.53;;;;;;;;;;8215302;28;20034;-62
2023/01/02 13:10:44;;;;;;;;;;;;;;;;;;8215995;28;20088;-63
2023/01/02 13:14:48;;;;;;;8.10;2.30;;;;;;;;;;8240317;28;19996;-64
2023/01/02 13:18:57;;;;;;;12.25;2.75;;;;;;;;;;8229495;28;20043;-66
2023/01/02 13:23:06;;;;;;;15.13;2.55;;;;;;;;;;8217242;28;20098;-62
2023/01/02 13:27:08;;;;;;;9.13;2.63;;;;;;;;;;8217627;28;20030;-65
2023/01/02 13:31:11;;;;;;;7.95;2.95;;;;;;;;;;8214357;28;20042;-63
2023/01/02 13:35:11;;;;;;;11.80;2.60;;;;;;;;;;8215833;28;20505;-61
2023/01/02 13:39:20;;;;;;;6.97;2.60;;;;;;;;;;8213057;28;20042;-65
2023/01/02 13:43:24;;;;;;;9.25;2.50;;;;;;;;;;8219205;28;20617;-67
2023/01/02 13:47:24;;;;;;;9.90;2.95;;;;;;;;;;8217158;28;20042;-65
2023/01/02 13:51:29;;;;;;;8.15;2.55;;;;;;;;;;8217603;28;20045;-65
2023/01/02 13:55:38;;;;;;;7.95;2.67;;;;;;;;;;8214945;28;20562;-64
2023/01/02 13:59:48;;;;;;;10.38;2.47;;;;;;;;;;8222616;28;20123;-64
2023/01/02 14:04:14;;;;;;;10.75;2.90;;;;;;;;;;8217200;28;20150;-66
2023/01/02 14:08:25;;;;;;;7.25;2.42;;;;;;;;;;8211699;28;20030;-66
2023/01/02 14:12:25;;;;;;;7.88;2.50;;;;;;;;;;8217462;28;20042;-65
2023/01/02 14:16:31;;;;;;;5.95;2.40;;;;;;;;;;8220656;28;20039;-69
2023/01/02 14:20:33;;;;;;;10.50;2.40;;;;;;;;;;8223132;28;20432;-65
2023/01/02 14:24:36;;;;;;;10.90;2.50;;;;;;;;;;8221429;28;20025;-64
2023/01/02 14:28:38;;;;;;;7.68;2.30;;;;;;;;;;8222971;28;20135;-66
2023/01/02 14:32:39;;;;;;;11.05;2.67;;;;;;;;;;8215959;28;20169;-66
2023/01/02 14:36:41;;;;;;;11.90;2.78;;;;;;;;;;8218272;28;20030;-64
2023/01/02 14:40:43;;;;;;;8.15;2.35;;;;;;;;;;8212510;28;20070;-65
2023/01/02 14:44:45;;;;;;;10.30;2.60;;;;;;;;;;8217978;28;20023;-65
2023/01/02 14:48:45;;;;;;;5.63;1.90;;;;;;;;;;8218148;28;20038;-65
2023/01/02 14:52:57;;;;;;;8.23;2.22;;;;;;;;;;8217994;28;20146;-62
2023/01/02 14:57:00;;;;;;;12.35;3.15;;;;;;;;;;8227079;28;20018;-64
2023/01/02 15:01:00;;;;;;;5.53;2.35;;;;;;;;;;8230654;28;20042;-68
2023/01/02 15:05:05;;;;;;;4.68;2.05;;;;;;;;;;8227665;28;20038;-65
2023/01/02 15:09:06;;;;;;;7.65;2.33;;;;;;;;;;8224584;28;20034;-63
2023/01/02 15:13:09;;;;;;;1.85;1.15;;;;;;;;;;8224454;28;20026;-62
2023/01/02 15:17:12;;;;;;;1.58;1.10;;;;;;;;;;8228024;28;20027;-67
2023/01/02 15:21:12;;;;;;;2.10;1.00;;;;;;;;;;8225062;28;20447;-62
2023/01/02 15:25:27;;;;;;;2.20;0.90;;;;;;;;;;8225478;28;20440;-66
2023/01/02 15:29:28;;;;;;;1.50;0.98;;;;;;;;;;8231329;28;20042;-64
2023/01/02 15:33:32;;;;;;;2.35;1.30;;;;;;;;;;8221432;28;20112;-62
2023/01/02 15:37:32;;;;;;;3.10;1.17;;;;;;;;;;8220085;28;20050;-63
2023/01/02 15:41:38;;;;;;;3.10;1.10;;;;;;;;;;8225010;28;20030;-61
2023/01/02 15:45:41;;;;;;;1.70;0.90;;;;;;;;;;8214133;28;20058;-61
2023/01/02 15:49:42;;;;;;;1.90;1.30;;;;;;;;;;8218709;28;20113;-61
2023/01/02 15:53:43;;;;;;;2.97;1.92;;;;;;;;;;8227133;28;20022;-62
2023/01/02 15:57:45;;;;;;;1.50;1.17;;;;;;;;;;8218093;28;20042;-61
2023/01/02 16:01:45;;;;;;;2.28;0.88;;;;;;;;;;8216104;28;20284;-61
2023/01/02 16:05:48;;;;;;;1.38;1.00;;;;;;;;;;8217182;28;20138;-62
2023/01/02 16:09:52;;;;;;;1.73;0.85;;;;;;;;;;8214652;28;20022;-61
2023/01/02 16:18:15;;;;;;;0.50;0.50;;;;;;;;;;8208259;28;20117;-61
2023/01/02 16:22:20;;;;;;;1.05;0.77;;;;;;;;;;8209327;28;20026;-61
2023/01/02 16:26:23;;;;;;;1.65;1.00;;;;;;;;;;8204240;28;20263;-61
2023/01/02 16:30:23;;;;;;;0.80;0.60;;;;;;;;;;8207814;28;20046;-61
2023/01/02 16:34:37;;;;;;;0.57;0.57;;;;;;;;;;8208038;28;20597;-61
2023/01/02 16:38:51;;;;;;;0.70;0.70;;;;;;;;;;8210882;28;20029;-61
2023/01/02 16:42:59;;;;;;;1.05;1.02;;;;;;;;;;8210259;28;20143;-61
2023/01/02 16:47:00;;;;;;;0.85;0.60;;;;;;;;;;8212577;28;20035;-61
2023/01/02 16:51:00;;;;;;;0.68;0.68;;;;;;;;;;8206819;28;20034;-61
2023/01/02 16:55:00;;;;;;;0.80;0.80;;;;;;;;;;8205531;28;20054;-61
2023/01/02 16:59:00;;;;;;;3.60;1.48;;;;;;;;;;8207318;28;20894;-61
2023/01/02 17:03:00;;;;;;;0.80;0.80;;;;;;;;;;8207192;28;20467;-61
2023/01/02 17:07:00;;;;;;;1.45;1.08;;;;;;;;;;8206881;28;20102;-61
2023/01/02 17:11:01;;;;;;;1.15;1.05;;;;;;;;;;8209875;28;20133;-61
2023/01/02 17:15:01;;;;;;;1.23;1.10;;;;;;;;;;8206949;28;20030;-61
2023/01/02 17:19:01;;;;;;;1.10;1.00;;;;;;;;;;8205789;28;20581;-61
2023/01/02 17:23:02;;;;;;;1.20;1.10;;;;;;;;;;8210890;28;20305;-61
2023/01/02 17:27:02;;;;;;;0.75;0.75;;;;;;;;;;8208442;28;20060;-62
2023/01/02 17:31:02;;;;;;;1.13;1.10;;;;;;;;;;8212344;28;20034;-62
2023/01/02 17:35:03;;;;;;;1.90;0.98;;;;;;;;;;8205633;28;20082;-61
2023/01/02 17:39:03;;;;;;;0.82;0.82;;;;;;;;;;8203733;28;20384;-61
2023/01/02 17:43:03;;;;;;;3.22;0.90;;;;;;;;;;8204788;28;20019;-62
2023/01/02 17:47:04;;;;;;;0.82;0.82;;;;;;;;;;8208016;28;20041;-62
2023/01/02 17:51:04;;;;;;;1.10;1.10;;;;;;;;;;8204962;28;20767;-62
2023/01/02 17:55:05;;;;;;;2.05;1.00;;;;;;;;;;8203399;28;20193;-61
2023/01/02 17:59:05;;;;;;;1.90;1.05;;;;;;;;;;8205213;28;20034;-62
2023/01/02 18:03:05;;;;;;;0.80;0.80;;;;;;;;;;8198119;28;20757;-61
2023/01/02 18:07:06;;;;;;;0.95;0.85;;;;;;;;;;8206855;28;20741;-62
2023/01/02 18:11:08;;;;;;;1.48;1.20;;;;;;;;;;8205160;28;20041;-62
2023/01/02 18:15:09;;;;;;;0.93;0.80;;;;;;;;;;8204570;28;20353;-62
2023/01/02 18:19:14;;;;;;;1.00;1.00;;;;;;;;;;8207298;28;20231;-62
2023/01/02 18:23:14;;;;;;;0.93;0.90;;;;;;;;;;8207303;28;20048;-62
2023/01/02 18:27:18;;;;;;;1.33;1.00;;;;;;;;;;8208440;28;20061;-62
2023/01/02 18:31:19;;;;;;;1.10;0.90;;;;;;;;;;8208549;28;20384;-61
2023/01/02 18:35:23;;;;;;;1.85;0.90;;;;;;;;;;8211942;28;20312;-61
2023/01/02 18:39:29;;;;;;;0.70;0.70;;;;;;;;;;8213158;28;20037;-61
2023/01/02 18:43:34;;;;;;;0.70;0.70;;;;;;;;;;8213359;28;20066;-61
2023/01/02 18:47:36;;;;;;;0.60;0.60;;;;;;;;;;8211747;28;20034;-61
2023/01/02 18:51:36;;;;;;;0.57;0.57;;;;;;;;;;8214728;28;20739;-62
2023/01/02 18:55:36;;;;;;;1.52;0.70;;;;;;;;;;8214148;28;20139;-61
2023/01/02 18:59:37;;;;;;;0.80;0.80;;;;;;;;;;8212500;28;20879;-62
2023/01/02 19:03:37;;;;;;;0.55;0.52;;;;;;;;;;8207923;28;20035;-62
2023/01/02 19:07:38;;;;;;;0.68;0.68;;;;;;;;;;8212688;28;20018;-62
2023/01/02 19:16:04;;;;;;;0.82;0.68;;;;;;;;;;8212825;28;20192;-62
2023/01/02 19:20:05;;;;;;;0.70;0.70;;;;;;;;;;8215190;28;20026;-61
2023/01/02 19:24:17;;;;;;;0.60;0.60;;;;;;;;;;8211219;28;20569;-61
2023/01/02 19:28:29;;;;;;;0.70;0.70;;;;;;;;;;8209096;28;20022;-62
2023/01/02 19:32:31;;;;;;;0.65;0.63;;;;;;;;;;8203958;28;20430;-61
2023/01/02 19:36:35;;;;;;;0.85;0.73;;;;;;;;;;8208984;28;20034;-61
2023/01/02 19:40:35;;;;;;;1.15;0.88;;;;;;;;;;8206196;28;20038;-62
2023/01/02 19:44:35;;;;;;;0.80;0.80;;;;;;;;;;8206171;28;20057;-61
2023/01/02 19:48:36;;;;;;;1.98;0.90;;;;;;;;;;8205895;28;20035;-61
2023/01/02 19:52:36;;;;;;;2.40;0.90;;;;;;;;;;8204443;28;20052;-61
2023/01/02 19:56:36;;;;;;;1.20;1.10;;;;;;;;;;8205429;28;20692;-61
2023/01/02 20:00:36;;;;;;;0.90;0.90;;;;;;;;;;8204463;28;20048;-62
2023/01/02 20:04:37;;;;;;;1.45;1.10;;;;;;;;;;8205739;28;20420;-62
2023/01/02 20:08:37;;;;;;;0.95;0.95;;;;;;;;;;8207796;28;20142;-62
2023/01/02 20:12:40;;;;;;;1.07;1.07;;;;;;;;;;8205571;28;20034;-62
2023/01/02 20:16:41;;;;;;;1.15;1.15;;;;;;;;;;8204791;28;20519;-62
2023/01/02 20:20:41;;;;;;;1.38;1.00;;;;;;;;;;8199257;28;20636;-62
2023/01/02 20:24:41;;;;;;;1.00;1.00;;;;;;;;;;8204645;28;20035;-62
2023/01/02 20:28:41;;;;;;;1.20;1.10;;;;;;;;;;8201060;28;20084;-62
2023/01/02 20:32:42;;;;;;;3.10;1.42;;;;;;;;;;8198655;28;20042;-62
2023/01/02 20:36:42;;;;;;;0.90;0.90;;;;;;;;;;8201847;28;20022;-62
2023/01/02 20:40:42;;;;;;;0.85;0.80;;;;;;;;;;8202851;28;20154;-62
2023/01/02 20:44:44;;;;;;;0.90;0.90;;;;;;;;;;8201135;28;21480;-62
2023/01/02 20:48:44;;;;;;;2.35;0.90;;;;;;;;;;8198395;28;20066;-62
2023/01/02 20:52:44;;;;;;;1.33;1.00;;;;;;;;;;8197402;28;21645;-62
2023/01/02 20:56:44;;;;;;;1.45;0.93;;;;;;;;;;8202224;28;21562;-61
2023/01/02 21:00:44;;;;;;;1.10;1.10;;;;;;;;;;8198995;28;20338;-62
2023/01/02 21:04:44;;;;;;;1.27;1.00;;;;;;;;;;8208440;28;20034;-62
2023/01/02 21:08:45;;;;;;;0.80;0.80;;;;;;;;;;8207066;28;21011;-62
2023/01/02 21:17:04;;;;;;;0.90;0.80;;;;;;;;;;8206416;28;20045;-62
2023/01/02 21:21:12;;;;;;;1.13;0.90;;;;;;;;;;8205472;28;20494;-62
2023/01/02 21:25:12;;;;;;;0.95;0.88;;;;;;;;;;8206824;28;20197;-62
2023/01/02 21:29:12;;;;;;;1.67;1.00;;;;;;;;;;8210783;28;20331;-62
2023/01/02 21:33:17;;;;;;;1.23;0.93;;;;;;;;;;8207246;28;20140;-61
2023/01/02 21:37:17;;;;;;;0.88;0.88;;;;;;;;;;8203314;28;20161;-61
2023/01/02 21:45:36;;;;;;;4.97;0.95;;;;;;;;;;8203345;28;20187;-62
2023/01/02 21:49:36;;;;;;;1.30;1.20;;;;;;;;;;8207932;28;20153;-62
2023/01/02 21:53:37;;;;;;;1.38;1.13;;;;;;;;;;8213007;28;20133;-62
2023/01/02 21:57:37;;;;;;;0.90;0.90;;;;;;;;;;8213374;28;20070;-62
2023/01/02 22:01:37;;;;;;;1.33;0.98;;;;;;;;;;8213329;28;20114;-62
2023/01/02 22:05:37;;;;;;;1.40;1.10;;;;;;;;;;8212428;28;20137;-62
2023/01/02 22:09:37;;;;;;;1.88;1.30;;;;;;;;;;8212669;28;20110;-62
2023/01/02 22:13:38;;;;;;;1.88;1.15;;;;;;;;;;8214426;28;20484;-62
2023/01/02 22:17:38;;;;;;;2.83;1.05;;;;;;;;;;8214992;28;20303;-62
2023/01/02 22:21:38;;;;;;;0.90;0.90;;;;;;;;;;8215083;28;20495;-62
2023/01/02 22:25:38;;;;;;;1.15;1.00;;;;;;;;;;8213847;28;20023;-62
2023/01/02 22:29:39;;;;;;;1.02;0.88;;;;;;;;;;8213665;28;20026;-62
2023/01/02 22:33:39;;;;;;;2.00;1.02;;;;;;;;;;8210568;28;20686;-62
2023/01/02 22:37:39;;;;;;;1.10;1.10;;;;;;;;;;8212362;28;20038;-62
2023/01/02 22:41:44;;;;;;;2.90;1.27;;;;;;;;;;8212800;28;20038;-62
2023/01/02 22:45:49;;;;;;;1.33;1.23;;;;;;;;;;8212335;28;20129;-62
2023/01/02 22:49:49;;;;;;;1.85;1.13;;;;;;;;;;8214466;28;20145;-62
2023/01/02 22:53:49;;;;;;;1.65;1.05;;;;;;;;;;8213426;28;20140;-62
2023/01/02 22:57:49;;;;;;;1.77;1.13;;;;;;;;;;8214146;28;20045;-62
2023/01/02 23:01:50;;;;;;;1.60;1.23;;;;;;;;;;8209522;28;20105;-62
2023/01/02 23:05:50;;;;;;;3.28;1.10;;;;;;;;;;8213120;28;20030;-61
2023/01/02 23:09:50;;;;;;;2.15;1.15;;;;;;;;;;8222332;28;20066;-62
2023/01/02 23:13:50;;;;;;;1.27;1.17;;;;;;;;;;8212813;28;20134;-61
2023/01/02 23:22:09;;;;;;;1.85;1.08;;;;;;;;;;8213356;28;20415;-62
2023/01/02 23:26:11;;;;;;;1.88;1.20;;;;;;;;;;8217030;28;20022;-62
2023/01/02 23:30:11;;;;;;;1.20;1.10;;;;;;;;;;8215499;28;20030;-62
2023/01/02 23:34:12;;;;;;;1.17;1.08;;;;;;;;;;8218839;28;20038;-62
2023/01/02 23:38:13;;;;;;;1.27;1.08;;;;;;;;;;8217071;28;20098;-62
2023/01/02 23:42:13;;;;;;;1.30;1.20;;;;;;;;;;8215305;28;20034;-62
2023/01/02 23:46:13;;;;;;;1.60;1.10;;;;;;;;;;8209454;28;20433;-61
2023/01/02 23:50:14;;;;;;;1.77;1.20;;;;;;;;;;8215907;28;20764;-62
2023/01/02 23:54:15;;;;;;;1.85;1.08;;;;;;;;;;8215281;28;20038;-62
2023/01/02 23:58:15;;;;;;;1.23;1.00;;;;;;;;;;8216038;28;20027;-62
